sensor_id;sensor_type;location;lat;lon;timestamp;pressure;altitude;pressure_sealevel;temperature;humidity
39309;BME280;26019;47.510;19.122;2023-08-31T00:09:40;99512.22;;;16.48;100.00
39309;BME280;26019;47.510;19.122;2023-08-31T00:19:42;99511.06;;;16.35;100.00
39309;BME280;26019;47.510;19.122;2023-08-31T00:29:46;99515.50;;;16.53;100.00
39309;BME280;26019;47.510;19.122;2023-08-31T00:39:52;99517.34;;;16.70;100.00
39309;BME280;26019;47.510;19.122;2023-08-31T00:49:54;99507.13;;;16.85;100.00
39309;BME280;26019;47.510;19.122;2023-08-31T00:59:57;99512.34;;;16.85;100.00
39309;BME280;26019;47.510;19.122;2023-08-31T01:20:38;99526.94;;;16.70;100.00
39309;BME280;26019;47.510;19.122;2023-08-31T01:30:40;99539.31;;;16.65;100.00
39309;BME280;26019;47.510;19.122;2023-08-31T01:40:51;99538.97;;;16.53;100.00
39309;BME280;26019;47.510;19.122;2023-08-31T01:50:58;99538.97;;;16.53;100.00
39309;BME280;26019;47.510;19.122;2023-08-31T02:01:01;99537.78;;;16.40;100.00
39309;BME280;26019;47.510;19.122;2023-08-31T02:11:03;99550.94;;;16.16;100.00
39309;BME280;26019;47.510;19.122;2023-08-31T02:21:05;99555.50;;;16.32;100.00
39309;BME280;26019;47.510;19.122;2023-08-31T02:31:10;99555.25;;;16.38;100.00
39309;BME280;26019;47.510;19.122;2023-08-31T02:41:13;99553.56;;;16.37;100.00
39309;BME280;26019;47.510;19.122;2023-08-31T02:51:16;99563.72;;;16.22;100.00
39309;BME280;26019;47.510;19.122;2023-08-31T03:01:18;99572.28;;;16.04;100.00
39309;BME280;26019;47.510;19.122;2023-08-31T03:11:20;99567.19;;;16.01;100.00
39309;BME280;26019;47.510;19.122;2023-08-31T03:21:22;99568.06;;;16.01;100.00
39309;BME280;26019;47.510;19.122;2023-08-31T03:31:24;99559.00;;;16.10;100.00
39309;BME280;26019;47.510;19.122;2023-08-31T03:41:25;99581.88;;;16.03;100.00
39309;BME280;26019;47.510;19.122;2023-08-31T03:51:27;99591.13;;;16.10;100.00
39309;BME280;26019;47.510;19.122;2023-08-31T04:01:31;99594.00;;;16.04;100.00
39309;BME280;26019;47.510;19.122;2023-08-31T04:11:33;99605.59;;;15.95;100.00
39309;BME280;26019;47.510;19.122;2023-08-31T04:21:36;99608.88;;;16.01;100.00
39309;BME280;26019;47.510;19.122;2023-08-31T04:31:40;99609.47;;;16.07;100.00
39309;BME280;26019;47.510;19.122;2023-08-31T04:41:42;99627.72;;;16.30;100.00
39309;BME280;26019;47.510;19.122;2023-08-31T04:51:44;99639.59;;;16.57;100.00
39309;BME280;26019;47.510;19.122;2023-08-31T05:01:46;99651.31;;;17.11;100.00
39309;BME280;26019;47.510;19.122;2023-08-31T05:11:47;99665.44;;;17.26;100.00
39309;BME280;26019;47.510;19.122;2023-08-31T05:21:50;99675.34;;;17.38;100.00
39309;BME280;26019;47.510;19.122;2023-08-31T05:31:52;99694.66;;;17.55;100.00
39309;BME280;26019;47.510;19.122;2023-08-31T05:41:54;99691.97;;;17.56;100.00
39309;BME280;26019;47.510;19.122;2023-08-31T05:51:56;99708.34;;;17.60;100.00
39309;BME280;26019;47.510;19.122;2023-08-31T06:01:58;99719.66;;;17.80;100.00
39309;BME280;26019;47.510;19.122;2023-08-31T06:12:01;99726.00;;;17.93;100.00
39309;BME280;26019;47.510;19.122;2023-08-31T06:22:04;99737.31;;;18.69;100.00
39309;BME280;26019;47.510;19.122;2023-08-31T06:32:05;99749.38;;;19.93;100.00
39309;BME280;26019;47.510;19.122;2023-08-31T06:42:10;99754.63;;;20.25;93.52
39309;BME280;26019;47.510;19.122;2023-08-31T06:52:11;99771.31;;;21.02;95.07
39309;BME280;26019;47.510;19.122;2023-08-31T07:02:29;99769.19;;;20.79;93.11
39309;BME280;26019;47.510;19.122;2023-08-31T07:12:34;99781.81;;;20.24;94.68
39309;BME280;26019;47.510;19.122;2023-08-31T07:22:37;99793.63;;;21.26;88.05
39309;BME280;26019;47.510;19.122;2023-08-31T07:32:40;99796.84;;;21.60;86.48
39309;BME280;26019;47.510;19.122;2023-08-31T07:42:42;99803.06;;;22.02;76.71
39309;BME280;26019;47.510;19.122;2023-08-31T07:52:44;99805.56;;;22.33;68.61
39309;BME280;26019;47.510;19.122;2023-08-31T08:02:45;99807.03;;;23.06;66.57
39309;BME280;26019;47.510;19.122;2023-08-31T08:12:48;99813.50;;;23.28;65.02
39309;BME280;26019;47.510;19.122;2023-08-31T08:22:51;99825.06;;;23.66;59.75
39309;BME280;26019;47.510;19.122;2023-08-31T08:32:55;99831.63;;;24.60;56.79
39309;BME280;26019;47.510;19.122;2023-08-31T08:43:00;99830.84;;;24.10;56.95
39309;BME280;26019;47.510;19.122;2023-08-31T08:53:05;99849.59;;;25.64;52.82
39309;BME280;26019;47.510;19.122;2023-08-31T09:03:08;99857.56;;;26.09;49.65
39309;BME280;26019;47.510;19.122;2023-08-31T09:13:14;99859.06;;;27.77;48.29
39309;BME280;26019;47.510;19.122;2023-08-31T09:23:20;99867.53;;;28.23;43.60
39309;BME280;26019;47.510;19.122;2023-08-31T09:33:21;99873.59;;;32.52;35.21
39309;BME280;26019;47.510;19.122;2023-08-31T09:43:23;99880.03;;;33.17;32.42
39309;BME280;26019;47.510;19.122;2023-08-31T09:53:29;99885.78;;;33.39;30.60
39309;BME280;26019;47.510;19.122;2023-08-31T10:03:32;99901.63;;;36.30;26.39
39309;BME280;26019;47.510;19.122;2023-08-31T10:13:34;99918.28;;;34.80;27.01
39309;BME280;26019;47.510;19.122;2023-08-31T10:23:47;99914.34;;;34.91;27.57
39309;BME280;26019;47.510;19.122;2023-08-31T10:33:58;99916.06;;;31.41;31.75
39309;BME280;26019;47.510;19.122;2023-08-31T10:44:02;99937.16;;;27.41;39.27
39309;BME280;26019;47.510;19.122;2023-08-31T10:54:20;99938.94;;;26.19;42.10
39309;BME280;26019;47.510;19.122;2023-08-31T11:04:24;99952.41;;;26.84;41.92
39309;BME280;26019;47.510;19.122;2023-08-31T11:14:26;99961.94;;;26.98;40.92
39309;BME280;26019;47.510;19.122;2023-08-31T11:24:34;99954.09;;;26.74;44.02
39309;BME280;26019;47.510;19.122;2023-08-31T11:34:48;99960.38;;;26.61;42.69
39309;BME280;26019;47.510;19.122;2023-08-31T11:44:52;99950.31;;;29.69;38.29
39309;BME280;26019;47.510;19.122;2023-08-31T11:54:54;99963.28;;;28.93;37.29
39309;BME280;26019;47.510;19.122;2023-08-31T12:04:56;99957.97;;;27.57;40.92
39309;BME280;26019;47.510;19.122;2023-08-31T12:15:05;99960.38;;;28.24;39.78
39309;BME280;26019;47.510;19.122;2023-08-31T12:25:07;99958.69;;;30.69;34.62
39309;BME280;26019;47.510;19.122;2023-08-31T12:35:09;99944.97;;;33.11;29.25
39309;BME280;26019;47.510;19.122;2023-08-31T12:45:13;99956.44;;;34.99;27.00
39309;BME280;26019;47.510;19.122;2023-08-31T12:55:16;99964.50;;;37.39;23.52
39309;BME280;26019;47.510;19.122;2023-08-31T13:05:19;99964.53;;;38.87;21.46
39309;BME280;26019;47.510;19.122;2023-08-31T13:15:21;99958.38;;;35.90;23.70
39309;BME280;26019;47.510;19.122;2023-08-31T13:25:25;99951.63;;;33.15;28.18
39309;BME280;26019;47.510;19.122;2023-08-31T13:35:29;99959.69;;;28.63;34.54
39309;BME280;26019;47.510;19.122;2023-08-31T13:45:31;99955.78;;;28.67;35.71
39309;BME280;26019;47.510;19.122;2023-08-31T13:55:33;99954.03;;;35.89;24.58
39309;BME280;26019;47.510;19.122;2023-08-31T14:05:38;99964.28;;;34.29;24.88
39309;BME280;26019;47.510;19.122;2023-08-31T14:15:46;99968.97;;;34.27;25.70
39309;BME280;26019;47.510;19.122;2023-08-31T14:25:48;99972.59;;;38.31;22.20
39309;BME280;26019;47.510;19.122;2023-08-31T14:35:50;99989.81;;;32.31;26.53
39309;BME280;26019;47.510;19.122;2023-08-31T14:45:56;99986.81;;;35.23;23.89
39309;BME280;26019;47.510;19.122;2023-08-31T14:55:58;99992.88;;;31.02;29.50
39309;BME280;26019;47.510;19.122;2023-08-31T15:06:00;99991.69;;;33.91;26.33
39309;BME280;26019;47.510;19.122;2023-08-31T15:16:03;99999.06;;;36.77;22.82
39309;BME280;26019;47.510;19.122;2023-08-31T15:26:05;100013.22;;;35.11;23.88
39309;BME280;26019;47.510;19.122;2023-08-31T15:36:09;100022.13;;;35.35;24.12
39309;BME280;26019;47.510;19.122;2023-08-31T15:46:11;100017.19;;;34.52;25.06
39309;BME280;26019;47.510;19.122;2023-08-31T15:56:13;100024.28;;;31.54;29.99
39309;BME280;26019;47.510;19.122;2023-08-31T16:06:17;100033.31;;;32.76;27.19
39309;BME280;26019;47.510;19.122;2023-08-31T16:16:23;100032.47;;;31.06;30.31
39309;BME280;26019;47.510;19.122;2023-08-31T16:26:26;100040.47;;;29.32;32.60
39309;BME280;26019;47.510;19.122;2023-08-31T16:36:28;100051.44;;;26.94;37.48
39309;BME280;26019;47.510;19.122;2023-08-31T16:46:31;100059.19;;;25.06;41.79
39309;BME280;26019;47.510;19.122;2023-08-31T16:56:33;100050.84;;;23.81;44.82
39309;BME280;26019;47.510;19.122;2023-08-31T17:06:41;100071.19;;;22.95;46.89
39309;BME280;26019;47.510;19.122;2023-08-31T17:16:45;100086.38;;;22.47;47.21
39309;BME280;26019;47.510;19.122;2023-08-31T17:26:49;100098.59;;;21.87;49.78
39309;BME280;26019;47.510;19.122;2023-08-31T17:36:56;100102.47;;;21.31;51.66
39309;BME280;26019;47.510;19.122;2023-08-31T17:47:02;100106.47;;;20.89;55.41
39309;BME280;26019;47.510;19.122;2023-08-31T17:57:05;100116.03;;;20.55;60.13
39309;BME280;26019;47.510;19.122;2023-08-31T18:07:12;100138.31;;;20.48;71.06
39309;BME280;26019;47.510;19.122;2023-08-31T18:17:25;100154.75;;;20.51;76.03
39309;BME280;26019;47.510;19.122;2023-08-31T18:27:32;100157.28;;;20.18;81.32
39309;BME280;26019;47.510;19.122;2023-08-31T18:37:34;100174.84;;;20.16;89.57
39309;BME280;26019;47.510;19.122;2023-08-31T18:47:38;100181.31;;;20.08;92.72
39309;BME280;26019;47.510;19.122;2023-08-31T18:57:46;100186.28;;;20.14;88.16
39309;BME280;26019;47.510;19.122;2023-08-31T19:07:50;100202.72;;;19.99;94.13
39309;BME280;26019;47.510;19.122;2023-08-31T19:18:01;100208.03;;;19.78;93.23
39309;BME280;26019;47.510;19.122;2023-08-31T19:28:11;100221.78;;;19.83;79.94
39309;BME280;26019;47.510;19.122;2023-08-31T19:38:15;100226.59;;;19.93;84.61
39309;BME280;26019;47.510;19.122;2023-08-31T19:48:20;100236.97;;;19.96;71.59
39309;BME280;26019;47.510;19.122;2023-08-31T19:58:24;100236.34;;;19.70;87.32
39309;BME280;26019;47.510;19.122;2023-08-31T20:08:26;100235.78;;;19.03;97.94
39309;BME280;26019;47.510;19.122;2023-08-31T20:18:29;100230.91;;;18.73;91.29
39309;BME280;26019;47.510;19.122;2023-08-31T20:28:32;100246.69;;;18.49;100.00
39309;BME280;26019;47.510;19.122;2023-08-31T20:38:37;100249.47;;;18.66;90.52
39309;BME280;26019;47.510;19.122;2023-08-31T20:48:43;100267.50;;;18.95;84.59
39309;BME280;26019;47.510;19.122;2023-08-31T20:58:45;100256.59;;;18.85;77.69
39309;BME280;26019;47.510;19.122;2023-08-31T21:08:48;100268.28;;;19.19;68.14
39309;BME280;26019;47.510;19.122;2023-08-31T21:18:59;100274.81;;;19.09;65.48
39309;BME280;26019;47.510;19.122;2023-08-31T21:29:08;100290.47;;;18.88;72.44
39309;BME280;26019;47.510;19.122;2023-08-31T21:39:13;100299.31;;;18.86;67.46
39309;BME280;26019;47.510;19.122;2023-08-31T21:49:15;100304.06;;;18.54;77.99
39309;BME280;26019;47.510;19.122;2023-08-31T21:59:17;100309.59;;;18.24;83.02
39309;BME280;26019;47.510;19.122;2023-08-31T22:09:19;100314.50;;;17.84;92.26
39309;BME280;26019;47.510;19.122;2023-08-31T22:19:24;100318.72;;;17.88;94.33
39309;BME280;26019;47.510;19.122;2023-08-31T22:29:26;100333.97;;;18.24;86.17
39309;BME280;26019;47.510;19.122;2023-08-31T22:39:31;100339.41;;;18.42;80.96
39309;BME280;26019;47.510;19.122;2023-08-31T22:49:35;100347.34;;;18.62;78.10
39309;BME280;26019;47.510;19.122;2023-08-31T22:59:38;100341.63;;;18.75;81.94
39309;BME280;26019;47.510;19.122;2023-08-31T23:09:40;100326.75;;;18.75;83.52
39309;BME280;26019;47.510;19.122;2023-08-31T23:19:42;100333.13;;;18.90;78.19
39309;BME280;26019;47.510;19.122;2023-08-31T23:29:45;100336.03;;;18.84;80.21
39309;BME280;26019;47.510;19.122;2023-08-31T23:39:47;100349.75;;;18.45;88.38
39309;BME280;26019;47.510;19.122;2023-08-31T23:49:49;100363.94;;;18.15;94.13
39309;BME280;26019;47.510;19.122;2023-08-31T23:59:50;100374.34;;;18.17;100.00
